sensor_id;sensor_type;location;lat;lon;timestamp;P1;durP1;ratioP1;P2;durP2;ratioP2
31978;SDS011;18502;43.574;1.276;2023-04-24T00:02:22;16.38;;;5.97;;
31978;SDS011;18502;43.574;1.276;2023-04-24T00:04:48;12.57;;;4.35;;
31978;SDS011;18502;43.574;1.276;2023-04-24T00:07:14;8.75;;;4.32;;
31978;SDS011;18502;43.574;1.276;2023-04-24T00:09:45;11.25;;;4.63;;
31978;SDS011;18502;43.574;1.276;2023-04-24T00:12:10;7.75;;;4.30;;
31978;SDS011;18502;43.574;1.276;2023-04-24T00:14:36;6.82;;;4.00;;
31978;SDS011;18502;43.574;1.276;2023-04-24T00:17:02;12.07;;;4.25;;
31978;SDS011;18502;43.574;1.276;2023-04-24T00:19:28;8.57;;;4.13;;
31978;SDS011;18502;43.574;1.276;2023-04-24T00:21:54;7.47;;;5.00;;
31978;SDS011;18502;43.574;1.276;2023-04-24T00:24:20;9.70;;;4.20;;
31978;SDS011;18502;43.574;1.276;2023-04-24T00:26:46;10.40;;;4.82;;
31978;SDS011;18502;43.574;1.276;2023-04-24T00:29:11;7.72;;;3.90;;
31978;SDS011;18502;43.574;1.276;2023-04-24T00:31:37;20.58;;;5.93;;
31978;SDS011;18502;43.574;1.276;2023-04-24T00:34:03;9.50;;;4.47;;
31978;SDS011;18502;43.574;1.276;2023-04-24T00:36:29;11.63;;;4.70;;
31978;SDS011;18502;43.574;1.276;2023-04-24T00:38:55;14.38;;;4.47;;
31978;SDS011;18502;43.574;1.276;2023-04-24T00:41:21;8.55;;;4.80;;
31978;SDS011;18502;43.574;1.276;2023-04-24T00:43:48;7.15;;;3.83;;
31978;SDS011;18502;43.574;1.276;2023-04-24T00:46:14;11.48;;;4.55;;
31978;SDS011;18502;43.574;1.276;2023-04-24T00:48:40;7.53;;;4.28;;
31978;SDS011;18502;43.574;1.276;2023-04-24T00:51:06;11.50;;;3.70;;
31978;SDS011;18502;43.574;1.276;2023-04-24T00:53:32;9.05;;;3.67;;
31978;SDS011;18502;43.574;1.276;2023-04-24T00:55:58;10.38;;;3.58;;
31978;SDS011;18502;43.574;1.276;2023-04-24T00:58:24;8.32;;;3.47;;
31978;SDS011;18502;43.574;1.276;2023-04-24T01:00:52;7.03;;;3.72;;
31978;SDS011;18502;43.574;1.276;2023-04-24T01:03:22;6.82;;;3.20;;
31978;SDS011;18502;43.574;1.276;2023-04-24T01:05:51;8.63;;;3.17;;
31978;SDS011;18502;43.574;1.276;2023-04-24T01:08:19;9.00;;;3.88;;
31978;SDS011;18502;43.574;1.276;2023-04-24T01:10:48;9.77;;;3.95;;
31978;SDS011;18502;43.574;1.276;2023-04-24T01:13:18;15.70;;;4.25;;
31978;SDS011;18502;43.574;1.276;2023-04-24T01:15:45;9.73;;;3.33;;
31978;SDS011;18502;43.574;1.276;2023-04-24T01:18:11;6.00;;;2.53;;
31978;SDS011;18502;43.574;1.276;2023-04-24T01:20:39;10.30;;;3.42;;
31978;SDS011;18502;43.574;1.276;2023-04-24T01:23:06;8.73;;;3.00;;
31978;SDS011;18502;43.574;1.276;2023-04-24T01:25:32;9.48;;;2.78;;
31978;SDS011;18502;43.574;1.276;2023-04-24T01:27:59;9.20;;;3.20;;
31978;SDS011;18502;43.574;1.276;2023-04-24T01:30:25;5.57;;;2.33;;
31978;SDS011;18502;43.574;1.276;2023-04-24T01:32:52;7.60;;;3.10;;
31978;SDS011;18502;43.574;1.276;2023-04-24T01:35:18;6.78;;;2.05;;
31978;SDS011;18502;43.574;1.276;2023-04-24T01:37:45;10.57;;;2.88;;
31978;SDS011;18502;43.574;1.276;2023-04-24T01:40:10;5.63;;;2.17;;
31978;SDS011;18502;43.574;1.276;2023-04-24T01:42:36;6.38;;;2.45;;
31978;SDS011;18502;43.574;1.276;2023-04-24T01:45:02;14.30;;;3.13;;
31978;SDS011;18502;43.574;1.276;2023-04-24T01:47:30;10.43;;;2.63;;
31978;SDS011;18502;43.574;1.276;2023-04-24T01:49:56;6.95;;;2.58;;
31978;SDS011;18502;43.574;1.276;2023-04-24T01:52:22;8.80;;;2.90;;
31978;SDS011;18502;43.574;1.276;2023-04-24T01:54:48;11.50;;;3.05;;
31978;SDS011;18502;43.574;1.276;2023-04-24T01:57:14;11.57;;;2.80;;
31978;SDS011;18502;43.574;1.276;2023-04-24T01:59:41;13.10;;;3.60;;
31978;SDS011;18502;43.574;1.276;2023-04-24T02:02:06;8.48;;;2.78;;
31978;SDS011;18502;43.574;1.276;2023-04-24T02:04:32;11.05;;;3.72;;
31978;SDS011;18502;43.574;1.276;2023-04-24T02:06:58;10.50;;;3.40;;
31978;SDS011;18502;43.574;1.276;2023-04-24T02:09:23;8.40;;;3.58;;
31978;SDS011;18502;43.574;1.276;2023-04-24T02:11:50;8.70;;;3.30;;
31978;SDS011;18502;43.574;1.276;2023-04-24T02:14:15;10.68;;;3.42;;
31978;SDS011;18502;43.574;1.276;2023-04-24T02:16:41;11.15;;;3.80;;
31978;SDS011;18502;43.574;1.276;2023-04-24T02:19:07;9.32;;;3.45;;
31978;SDS011;18502;43.574;1.276;2023-04-24T02:21:33;7.88;;;3.50;;
31978;SDS011;18502;43.574;1.276;2023-04-24T02:23:59;11.55;;;3.25;;
31978;SDS011;18502;43.574;1.276;2023-04-24T02:26:25;13.35;;;2.83;;
31978;SDS011;18502;43.574;1.276;2023-04-24T02:28:51;12.88;;;3.65;;
31978;SDS011;18502;43.574;1.276;2023-04-24T02:31:16;6.75;;;2.88;;
31978;SDS011;18502;43.574;1.276;2023-04-24T02:33:42;9.45;;;2.88;;
31978;SDS011;18502;43.574;1.276;2023-04-24T02:36:08;7.65;;;2.92;;
31978;SDS011;18502;43.574;1.276;2023-04-24T02:38:33;8.52;;;3.05;;
31978;SDS011;18502;43.574;1.276;2023-04-24T02:40:59;7.05;;;3.05;;
31978;SDS011;18502;43.574;1.276;2023-04-24T02:43:26;8.20;;;2.97;;
31978;SDS011;18502;43.574;1.276;2023-04-24T02:45:52;8.85;;;2.75;;
31978;SDS011;18502;43.574;1.276;2023-04-24T02:48:18;12.68;;;3.75;;
31978;SDS011;18502;43.574;1.276;2023-04-24T02:50:45;8.07;;;3.45;;
31978;SDS011;18502;43.574;1.276;2023-04-24T02:53:11;7.18;;;2.50;;
31978;SDS011;18502;43.574;1.276;2023-04-24T02:55:37;9.13;;;2.85;;
31978;SDS011;18502;43.574;1.276;2023-04-24T02:58:02;7.65;;;2.63;;
31978;SDS011;18502;43.574;1.276;2023-04-24T03:00:28;7.72;;;2.55;;
31978;SDS011;18502;43.574;1.276;2023-04-24T03:02:54;8.55;;;2.45;;
31978;SDS011;18502;43.574;1.276;2023-04-24T03:05:20;9.82;;;3.13;;
31978;SDS011;18502;43.574;1.276;2023-04-24T03:07:46;7.03;;;2.17;;
31978;SDS011;18502;43.574;1.276;2023-04-24T03:10:12;10.50;;;2.17;;
31978;SDS011;18502;43.574;1.276;2023-04-24T03:12:37;10.52;;;3.58;;
31978;SDS011;18502;43.574;1.276;2023-04-24T03:15:03;7.35;;;2.67;;
31978;SDS011;18502;43.574;1.276;2023-04-24T03:17:29;7.30;;;2.47;;
31978;SDS011;18502;43.574;1.276;2023-04-24T03:19:55;7.07;;;2.47;;
31978;SDS011;18502;43.574;1.276;2023-04-24T03:22:21;8.65;;;2.30;;
31978;SDS011;18502;43.574;1.276;2023-04-24T03:24:46;7.82;;;2.58;;
31978;SDS011;18502;43.574;1.276;2023-04-24T03:27:12;6.20;;;2.95;;
31978;SDS011;18502;43.574;1.276;2023-04-24T03:29:37;12.98;;;2.63;;
31978;SDS011;18502;43.574;1.276;2023-04-24T03:32:03;9.02;;;3.40;;
31978;SDS011;18502;43.574;1.276;2023-04-24T03:34:29;13.70;;;2.90;;
31978;SDS011;18502;43.574;1.276;2023-04-24T03:36:54;6.63;;;2.28;;
31978;SDS011;18502;43.574;1.276;2023-04-24T03:39:20;8.40;;;2.50;;
31978;SDS011;18502;43.574;1.276;2023-04-24T03:41:46;9.57;;;3.08;;
31978;SDS011;18502;43.574;1.276;2023-04-24T03:44:11;11.95;;;2.30;;
31978;SDS011;18502;43.574;1.276;2023-04-24T03:46:37;10.50;;;2.08;;
31978;SDS011;18502;43.574;1.276;2023-04-24T03:49:03;7.15;;;1.95;;
31978;SDS011;18502;43.574;1.276;2023-04-24T03:51:28;8.52;;;2.22;;
31978;SDS011;18502;43.574;1.276;2023-04-24T03:53:55;6.30;;;2.00;;
31978;SDS011;18502;43.574;1.276;2023-04-24T03:56:21;7.18;;;1.83;;
31978;SDS011;18502;43.574;1.276;2023-04-24T03:58:47;6.38;;;2.10;;
31978;SDS011;18502;43.574;1.276;2023-04-24T04:01:12;13.00;;;2.50;;
31978;SDS011;18502;43.574;1.276;2023-04-24T04:03:40;10.75;;;2.10;;
31978;SDS011;18502;43.574;1.276;2023-04-24T04:06:06;12.15;;;2.25;;
31978;SDS011;18502;43.574;1.276;2023-04-24T04:08:32;8.93;;;2.22;;
31978;SDS011;18502;43.574;1.276;2023-04-24T04:10:58;7.95;;;2.40;;
31978;SDS011;18502;43.574;1.276;2023-04-24T04:13:23;13.65;;;2.30;;
31978;SDS011;18502;43.574;1.276;2023-04-24T04:15:49;6.22;;;1.88;;
31978;SDS011;18502;43.574;1.276;2023-04-24T04:18:15;12.45;;;2.45;;
31978;SDS011;18502;43.574;1.276;2023-04-24T04:20:41;7.93;;;2.10;;
31978;SDS011;18502;43.574;1.276;2023-04-24T04:23:07;6.72;;;1.90;;
31978;SDS011;18502;43.574;1.276;2023-04-24T04:25:32;10.35;;;2.22;;
31978;SDS011;18502;43.574;1.276;2023-04-24T04:27:58;7.82;;;2.35;;
31978;SDS011;18502;43.574;1.276;2023-04-24T04:30:24;9.63;;;2.00;;
31978;SDS011;18502;43.574;1.276;2023-04-24T04:32:50;15.48;;;2.50;;
31978;SDS011;18502;43.574;1.276;2023-04-24T04:35:16;8.75;;;2.00;;
31978;SDS011;18502;43.574;1.276;2023-04-24T04:37:42;8.23;;;2.42;;
31978;SDS011;18502;43.574;1.276;2023-04-24T04:40:08;11.50;;;2.88;;
31978;SDS011;18502;43.574;1.276;2023-04-24T04:42:36;10.27;;;2.28;;
31978;SDS011;18502;43.574;1.276;2023-04-24T04:45:05;12.40;;;2.38;;
31978;SDS011;18502;43.574;1.276;2023-04-24T04:47:34;8.07;;;2.08;;
31978;SDS011;18502;43.574;1.276;2023-04-24T04:49:59;9.52;;;2.30;;
31978;SDS011;18502;43.574;1.276;2023-04-24T04:52:25;9.63;;;2.30;;
31978;SDS011;18502;43.574;1.276;2023-04-24T04:54:51;13.30;;;2.95;;
31978;SDS011;18502;43.574;1.276;2023-04-24T04:57:17;7.75;;;1.98;;
31978;SDS011;18502;43.574;1.276;2023-04-24T04:59:43;9.02;;;2.33;;
31978;SDS011;18502;43.574;1.276;2023-04-24T05:02:09;9.07;;;2.45;;
31978;SDS011;18502;43.574;1.276;2023-04-24T05:04:34;7.78;;;2.55;;
31978;SDS011;18502;43.574;1.276;2023-04-24T05:07:00;8.05;;;3.28;;
31978;SDS011;18502;43.574;1.276;2023-04-24T05:09:26;10.38;;;2.65;;
31978;SDS011;18502;43.574;1.276;2023-04-24T05:11:53;13.27;;;2.92;;
31978;SDS011;18502;43.574;1.276;2023-04-24T05:14:19;12.27;;;2.88;;
31978;SDS011;18502;43.574;1.276;2023-04-24T05:16:45;12.63;;;2.90;;
31978;SDS011;18502;43.574;1.276;2023-04-24T05:19:11;14.70;;;3.65;;
31978;SDS011;18502;43.574;1.276;2023-04-24T05:21:39;7.82;;;2.78;;
31978;SDS011;18502;43.574;1.276;2023-04-24T05:24:05;15.10;;;3.22;;
31978;SDS011;18502;43.574;1.276;2023-04-24T05:26:31;12.90;;;2.55;;
31978;SDS011;18502;43.574;1.276;2023-04-24T05:28:57;14.93;;;3.33;;
31978;SDS011;18502;43.574;1.276;2023-04-24T05:31:23;18.35;;;3.42;;
31978;SDS011;18502;43.574;1.276;2023-04-24T05:33:50;12.88;;;3.30;;
31978;SDS011;18502;43.574;1.276;2023-04-24T05:36:16;13.48;;;3.75;;
31978;SDS011;18502;43.574;1.276;2023-04-24T05:38:41;10.82;;;3.15;;
31978;SDS011;18502;43.574;1.276;2023-04-24T05:41:07;14.35;;;2.70;;
31978;SDS011;18502;43.574;1.276;2023-04-24T05:43:33;13.13;;;3.00;;
31978;SDS011;18502;43.574;1.276;2023-04-24T05:45:58;11.82;;;2.70;;
31978;SDS011;18502;43.574;1.276;2023-04-24T05:48:24;16.30;;;2.80;;
31978;SDS011;18502;43.574;1.276;2023-04-24T05:50:50;18.90;;;2.78;;
31978;SDS011;18502;43.574;1.276;2023-04-24T05:53:17;9.68;;;2.85;;
31978;SDS011;18502;43.574;1.276;2023-04-24T05:55:43;15.48;;;3.50;;
31978;SDS011;18502;43.574;1.276;2023-04-24T05:58:09;15.27;;;2.40;;
31978;SDS011;18502;43.574;1.276;2023-04-24T06:00:35;16.35;;;3.97;;
31978;SDS011;18502;43.574;1.276;2023-04-24T06:03:01;14.02;;;3.05;;
31978;SDS011;18502;43.574;1.276;2023-04-24T06:05:28;9.90;;;3.03;;
31978;SDS011;18502;43.574;1.276;2023-04-24T06:07:54;19.13;;;2.63;;
31978;SDS011;18502;43.574;1.276;2023-04-24T06:10:20;14.60;;;3.35;;
31978;SDS011;18502;43.574;1.276;2023-04-24T06:12:46;9.65;;;3.17;;
31978;SDS011;18502;43.574;1.276;2023-04-24T06:15:12;15.85;;;4.28;;
31978;SDS011;18502;43.574;1.276;2023-04-24T06:17:38;9.95;;;2.50;;
31978;SDS011;18502;43.574;1.276;2023-04-24T06:20:03;13.05;;;2.80;;
31978;SDS011;18502;43.574;1.276;2023-04-24T06:22:31;13.43;;;2.70;;
31978;SDS011;18502;43.574;1.276;2023-04-24T06:24:56;12.60;;;3.47;;
31978;SDS011;18502;43.574;1.276;2023-04-24T06:27:22;12.32;;;2.67;;
31978;SDS011;18502;43.574;1.276;2023-04-24T06:29:48;12.40;;;3.60;;
31978;SDS011;18502;43.574;1.276;2023-04-24T06:32:20;9.80;;;2.33;;
31978;SDS011;18502;43.574;1.276;2023-04-24T06:34:49;11.63;;;2.67;;
31978;SDS011;18502;43.574;1.276;2023-04-24T06:37:16;10.25;;;2.83;;
31978;SDS011;18502;43.574;1.276;2023-04-24T06:39:41;9.70;;;2.70;;
31978;SDS011;18502;43.574;1.276;2023-04-24T06:42:07;8.75;;;2.50;;
31978;SDS011;18502;43.574;1.276;2023-04-24T06:44:34;14.38;;;2.92;;
31978;SDS011;18502;43.574;1.276;2023-04-24T06:47:05;14.27;;;3.10;;
31978;SDS011;18502;43.574;1.276;2023-04-24T06:49:35;11.13;;;2.70;;
31978;SDS011;18502;43.574;1.276;2023-04-24T06:52:01;10.30;;;2.88;;
31978;SDS011;18502;43.574;1.276;2023-04-24T06:54:27;15.07;;;3.50;;
31978;SDS011;18502;43.574;1.276;2023-04-24T06:56:54;14.32;;;2.60;;
31978;SDS011;18502;43.574;1.276;2023-04-24T06:59:20;8.27;;;3.42;;
31978;SDS011;18502;43.574;1.276;2023-04-24T07:01:46;9.35;;;2.53;;
31978;SDS011;18502;43.574;1.276;2023-04-24T07:04:11;10.50;;;2.30;;
31978;SDS011;18502;43.574;1.276;2023-04-24T07:06:38;5.75;;;2.17;;
31978;SDS011;18502;43.574;1.276;2023-04-24T07:09:04;11.00;;;2.55;;
31978;SDS011;18502;43.574;1.276;2023-04-24T07:11:30;7.43;;;2.05;;
31978;SDS011;18502;43.574;1.276;2023-04-24T07:13:56;6.68;;;2.20;;
31978;SDS011;18502;43.574;1.276;2023-04-24T07:16:22;3.85;;;1.80;;
31978;SDS011;18502;43.574;1.276;2023-04-24T07:18:47;10.30;;;3.38;;
31978;SDS011;18502;43.574;1.276;2023-04-24T07:21:13;3.95;;;1.55;;
31978;SDS011;18502;43.574;1.276;2023-04-24T07:23:39;6.30;;;1.50;;
31978;SDS011;18502;43.574;1.276;2023-04-24T07:26:06;2.53;;;0.80;;
31978;SDS011;18502;43.574;1.276;2023-04-24T07:28:32;4.18;;;1.23;;
31978;SDS011;18502;43.574;1.276;2023-04-24T07:30:57;4.55;;;1.30;;
31978;SDS011;18502;43.574;1.276;2023-04-24T07:33:24;5.43;;;0.90;;
31978;SDS011;18502;43.574;1.276;2023-04-24T07:35:53;11.57;;;2.05;;
31978;SDS011;18502;43.574;1.276;2023-04-24T07:38:19;4.53;;;1.13;;
31978;SDS011;18502;43.574;1.276;2023-04-24T07:40:47;4.55;;;0.90;;
31978;SDS011;18502;43.574;1.276;2023-04-24T07:43:13;5.57;;;1.00;;
31978;SDS011;18502;43.574;1.276;2023-04-24T07:45:39;3.42;;;0.90;;
31978;SDS011;18502;43.574;1.276;2023-04-24T07:48:06;7.57;;;1.90;;
31978;SDS011;18502;43.574;1.276;2023-04-24T07:50:31;4.45;;;1.35;;
31978;SDS011;18502;43.574;1.276;2023-04-24T07:52:57;5.47;;;1.23;;
31978;SDS011;18502;43.574;1.276;2023-04-24T07:55:23;8.25;;;1.30;;
31978;SDS011;18502;43.574;1.276;2023-04-24T07:57:49;8.60;;;1.30;;
31978;SDS011;18502;43.574;1.276;2023-04-24T08:00:15;7.80;;;1.27;;
31978;SDS011;18502;43.574;1.276;2023-04-24T08:02:41;4.10;;;0.90;;
31978;SDS011;18502;43.574;1.276;2023-04-24T08:05:06;7.15;;;1.13;;
31978;SDS011;18502;43.574;1.276;2023-04-24T08:07:32;5.80;;;1.55;;
31978;SDS011;18502;43.574;1.276;2023-04-24T08:09:58;12.15;;;2.28;;
31978;SDS011;18502;43.574;1.276;2023-04-24T08:12:24;5.85;;;1.38;;
31978;SDS011;18502;43.574;1.276;2023-04-24T08:14:50;7.00;;;1.15;;
31978;SDS011;18502;43.574;1.276;2023-04-24T08:17:16;4.93;;;1.40;;
31978;SDS011;18502;43.574;1.276;2023-04-24T08:19:42;4.78;;;0.85;;
31978;SDS011;18502;43.574;1.276;2023-04-24T08:22:12;4.00;;;1.00;;
31978;SDS011;18502;43.574;1.276;2023-04-24T08:24:38;4.93;;;0.80;;
31978;SDS011;18502;43.574;1.276;2023-04-24T08:27:04;4.05;;;1.23;;
31978;SDS011;18502;43.574;1.276;2023-04-24T08:29:30;2.75;;;1.00;;
31978;SDS011;18502;43.574;1.276;2023-04-24T08:31:55;5.93;;;1.30;;
31978;SDS011;18502;43.574;1.276;2023-04-24T08:34:21;5.35;;;1.40;;
31978;SDS011;18502;43.574;1.276;2023-04-24T08:36:47;7.35;;;1.05;;
31978;SDS011;18502;43.574;1.276;2023-04-24T08:39:13;3.40;;;0.68;;
31978;SDS011;18502;43.574;1.276;2023-04-24T08:41:41;6.05;;;0.88;;
31978;SDS011;18502;43.574;1.276;2023-04-24T08:44:11;2.28;;;0.60;;
31978;SDS011;18502;43.574;1.276;2023-04-24T08:46:37;3.78;;;0.75;;
31978;SDS011;18502;43.574;1.276;2023-04-24T08:49:04;5.20;;;1.15;;
31978;SDS011;18502;43.574;1.276;2023-04-24T08:51:30;4.00;;;1.50;;
31978;SDS011;18502;43.574;1.276;2023-04-24T08:53:56;6.28;;;0.85;;
31978;SDS011;18502;43.574;1.276;2023-04-24T08:56:23;2.22;;;0.95;;
31978;SDS011;18502;43.574;1.276;2023-04-24T08:58:53;5.53;;;0.60;;
31978;SDS011;18502;43.574;1.276;2023-04-24T09:01:19;5.22;;;0.80;;
31978;SDS011;18502;43.574;1.276;2023-04-24T09:03:46;4.93;;;0.70;;
31978;SDS011;18502;43.574;1.276;2023-04-24T09:06:14;5.43;;;0.82;;
31978;SDS011;18502;43.574;1.276;2023-04-24T09:08:42;3.30;;;0.90;;
31978;SDS011;18502;43.574;1.276;2023-04-24T09:11:10;4.10;;;0.93;;
31978;SDS011;18502;43.574;1.276;2023-04-24T09:13:36;4.88;;;0.70;;
31978;SDS011;18502;43.574;1.276;2023-04-24T09:16:02;3.85;;;0.93;;
31978;SDS011;18502;43.574;1.276;2023-04-24T09:18:28;1.98;;;0.60;;
31978;SDS011;18502;43.574;1.276;2023-04-24T09:21:04;3.17;;;0.88;;
31978;SDS011;18502;43.574;1.276;2023-04-24T09:23:32;5.40;;;0.65;;
31978;SDS011;18502;43.574;1.276;2023-04-24T09:25:59;2.97;;;0.50;;
31978;SDS011;18502;43.574;1.276;2023-04-24T09:28:29;6.15;;;0.93;;
31978;SDS011;18502;43.574;1.276;2023-04-24T09:31:04;2.92;;;0.60;;
31978;SDS011;18502;43.574;1.276;2023-04-24T09:34:04;3.72;;;0.70;;
31978;SDS011;18502;43.574;1.276;2023-04-24T09:36:36;2.40;;;0.70;;
31978;SDS011;18502;43.574;1.276;2023-04-24T09:39:06;2.10;;;0.60;;
31978;SDS011;18502;43.574;1.276;2023-04-24T09:41:49;3.58;;;0.75;;
31978;SDS011;18502;43.574;1.276;2023-04-24T09:44:20;4.22;;;1.02;;
31978;SDS011;18502;43.574;1.276;2023-04-24T09:46:52;3.08;;;0.60;;
31978;SDS011;18502;43.574;1.276;2023-04-24T09:49:25;3.42;;;0.82;;
31978;SDS011;18502;43.574;1.276;2023-04-24T09:51:52;2.88;;;0.80;;
31978;SDS011;18502;43.574;1.276;2023-04-24T09:54:30;2.38;;;0.65;;
31978;SDS011;18502;43.574;1.276;2023-04-24T09:56:56;3.50;;;0.77;;
31978;SDS011;18502;43.574;1.276;2023-04-24T09:59:22;2.75;;;0.38;;
31978;SDS011;18502;43.574;1.276;2023-04-24T10:01:48;3.72;;;0.60;;
31978;SDS011;18502;43.574;1.276;2023-04-24T10:06:43;2.50;;;0.65;;
31978;SDS011;18502;43.574;1.276;2023-04-24T10:09:10;2.13;;;0.60;;
31978;SDS011;18502;43.574;1.276;2023-04-24T10:11:42;5.25;;;0.80;;
31978;SDS011;18502;43.574;1.276;2023-04-24T10:14:17;3.58;;;0.73;;
31978;SDS011;18502;43.574;1.276;2023-04-24T10:16:44;2.65;;;0.68;;
31978;SDS011;18502;43.574;1.276;2023-04-24T10:19:12;3.33;;;0.73;;
31978;SDS011;18502;43.574;1.276;2023-04-24T10:21:38;3.65;;;0.82;;
31978;SDS011;18502;43.574;1.276;2023-04-24T10:24:10;3.05;;;0.70;;
31978;SDS011;18502;43.574;1.276;2023-04-24T10:26:37;3.17;;;1.23;;
31978;SDS011;18502;43.574;1.276;2023-04-24T10:29:05;4.32;;;0.68;;
31978;SDS011;18502;43.574;1.276;2023-04-24T10:31:37;2.22;;;0.68;;
31978;SDS011;18502;43.574;1.276;2023-04-24T10:34:07;4.53;;;0.60;;
31978;SDS011;18502;43.574;1.276;2023-04-24T10:36:35;4.97;;;1.10;;
31978;SDS011;18502;43.574;1.276;2023-04-24T10:39:06;3.15;;;0.70;;
31978;SDS011;18502;43.574;1.276;2023-04-24T10:41:36;2.17;;;1.15;;
31978;SDS011;18502;43.574;1.276;2023-04-24T10:46:37;4.90;;;1.10;;
31978;SDS011;18502;43.574;1.276;2023-04-24T10:49:06;1.75;;;0.63;;
31978;SDS011;18502;43.574;1.276;2023-04-24T10:54:22;2.30;;;0.97;;
31978;SDS011;18502;43.574;1.276;2023-04-24T10:56:53;4.53;;;0.70;;
31978;SDS011;18502;43.574;1.276;2023-04-24T10:59:39;3.72;;;1.13;;
31978;SDS011;18502;43.574;1.276;2023-04-24T11:02:05;5.00;;;0.93;;
31978;SDS011;18502;43.574;1.276;2023-04-24T11:04:33;1.77;;;0.47;;
31978;SDS011;18502;43.574;1.276;2023-04-24T11:07:00;5.03;;;0.90;;
31978;SDS011;18502;43.574;1.276;2023-04-24T11:09:26;2.85;;;0.80;;
31978;SDS011;18502;43.574;1.276;2023-04-24T11:12:02;1.45;;;0.65;;
31978;SDS011;18502;43.574;1.276;2023-04-24T11:14:44;5.80;;;1.10;;
31978;SDS011;18502;43.574;1.276;2023-04-24T11:20:07;4.38;;;1.27;;
31978;SDS011;18502;43.574;1.276;2023-04-24T11:22:36;3.03;;;1.00;;
31978;SDS011;18502;43.574;1.276;2023-04-24T11:25:04;3.25;;;0.95;;
31978;SDS011;18502;43.574;1.276;2023-04-24T11:27:34;2.95;;;1.02;;
31978;SDS011;18502;43.574;1.276;2023-04-24T11:30:04;2.95;;;0.95;;
31978;SDS011;18502;43.574;1.276;2023-04-24T11:35:01;3.55;;;0.98;;
31978;SDS011;18502;43.574;1.276;2023-04-24T11:37:36;10.00;;;1.33;;
31978;SDS011;18502;43.574;1.276;2023-04-24T11:40:04;4.25;;;0.60;;
31978;SDS011;18502;43.574;1.276;2023-04-24T11:42:35;4.65;;;1.00;;
31978;SDS011;18502;43.574;1.276;2023-04-24T11:45:02;2.13;;;0.90;;
31978;SDS011;18502;43.574;1.276;2023-04-24T11:47:37;7.38;;;1.05;;
31978;SDS011;18502;43.574;1.276;2023-04-24T11:50:04;2.15;;;0.70;;
31978;SDS011;18502;43.574;1.276;2023-04-24T11:52:33;5.53;;;1.05;;
31978;SDS011;18502;43.574;1.276;2023-04-24T11:55:01;5.55;;;0.82;;
31978;SDS011;18502;43.574;1.276;2023-04-24T11:57:28;3.83;;;1.48;;
31978;SDS011;18502;43.574;1.276;2023-04-24T11:59:58;2.55;;;0.45;;
31978;SDS011;18502;43.574;1.276;2023-04-24T12:02:44;7.85;;;0.90;;
31978;SDS011;18502;43.574;1.276;2023-04-24T12:05:23;2.30;;;0.75;;
31978;SDS011;18502;43.574;1.276;2023-04-24T12:07:53;1.40;;;0.57;;
31978;SDS011;18502;43.574;1.276;2023-04-24T12:10:19;3.88;;;0.60;;
31978;SDS011;18502;43.574;1.276;2023-04-24T12:12:49;3.90;;;0.68;;
31978;SDS011;18502;43.574;1.276;2023-04-24T12:15:16;4.70;;;1.10;;
31978;SDS011;18502;43.574;1.276;2023-04-24T12:17:46;3.20;;;1.00;;
31978;SDS011;18502;43.574;1.276;2023-04-24T12:20:13;4.78;;;1.27;;
31978;SDS011;18502;43.574;1.276;2023-04-24T12:25:11;3.47;;;0.65;;
31978;SDS011;18502;43.574;1.276;2023-04-24T12:27:37;1.95;;;0.63;;
31978;SDS011;18502;43.574;1.276;2023-04-24T12:30:04;5.45;;;0.90;;
31978;SDS011;18502;43.574;1.276;2023-04-24T12:32:30;3.80;;;1.08;;
31978;SDS011;18502;43.574;1.276;2023-04-24T12:34:57;2.00;;;0.90;;
31978;SDS011;18502;43.574;1.276;2023-04-24T12:37:26;4.50;;;1.02;;
31978;SDS011;18502;43.574;1.276;2023-04-24T12:40:03;3.10;;;0.82;;
31978;SDS011;18502;43.574;1.276;2023-04-24T12:42:33;2.67;;;1.00;;
31978;SDS011;18502;43.574;1.276;2023-04-24T12:45:01;4.72;;;0.80;;
31978;SDS011;18502;43.574;1.276;2023-04-24T12:47:30;3.08;;;1.00;;
31978;SDS011;18502;43.574;1.276;2023-04-24T12:49:56;2.10;;;0.80;;
31978;SDS011;18502;43.574;1.276;2023-04-24T12:52:23;4.20;;;1.00;;
31978;SDS011;18502;43.574;1.276;2023-04-24T12:54:51;2.53;;;1.00;;
31978;SDS011;18502;43.574;1.276;2023-04-24T12:57:18;4.32;;;0.82;;
31978;SDS011;18502;43.574;1.276;2023-04-24T12:59:44;2.55;;;1.15;;
31978;SDS011;18502;43.574;1.276;2023-04-24T13:02:10;4.20;;;1.00;;
31978;SDS011;18502;43.574;1.276;2023-04-24T13:04:36;6.85;;;1.20;;
31978;SDS011;18502;43.574;1.276;2023-04-24T13:07:02;3.70;;;1.00;;
31978;SDS011;18502;43.574;1.276;2023-04-24T13:09:28;5.80;;;1.17;;
31978;SDS011;18502;43.574;1.276;2023-04-24T13:11:54;6.05;;;1.10;;
31978;SDS011;18502;43.574;1.276;2023-04-24T13:14:21;4.13;;;1.20;;
31978;SDS011;18502;43.574;1.276;2023-04-24T13:16:47;4.75;;;0.77;;
31978;SDS011;18502;43.574;1.276;2023-04-24T13:19:13;4.15;;;0.75;;
31978;SDS011;18502;43.574;1.276;2023-04-24T13:21:40;3.75;;;1.05;;
31978;SDS011;18502;43.574;1.276;2023-04-24T13:24:05;3.17;;;1.55;;
31978;SDS011;18502;43.574;1.276;2023-04-24T13:26:32;3.40;;;1.27;;
31978;SDS011;18502;43.574;1.276;2023-04-24T13:28:58;2.17;;;0.90;;
31978;SDS011;18502;43.574;1.276;2023-04-24T13:31:24;6.93;;;1.58;;
31978;SDS011;18502;43.574;1.276;2023-04-24T13:33:50;4.50;;;1.33;;
31978;SDS011;18502;43.574;1.276;2023-04-24T13:36:15;4.55;;;0.98;;
31978;SDS011;18502;43.574;1.276;2023-04-24T13:38:42;2.67;;;0.90;;
31978;SDS011;18502;43.574;1.276;2023-04-24T13:41:09;2.63;;;0.73;;
31978;SDS011;18502;43.574;1.276;2023-04-24T13:43:35;4.35;;;0.90;;
31978;SDS011;18502;43.574;1.276;2023-04-24T13:46:01;5.30;;;1.17;;
31978;SDS011;18502;43.574;1.276;2023-04-24T13:48:28;4.13;;;1.05;;
31978;SDS011;18502;43.574;1.276;2023-04-24T13:50:54;4.43;;;1.13;;
31978;SDS011;18502;43.574;1.276;2023-04-24T13:53:20;2.95;;;1.05;;
31978;SDS011;18502;43.574;1.276;2023-04-24T13:55:45;3.35;;;1.00;;
31978;SDS011;18502;43.574;1.276;2023-04-24T13:58:11;2.55;;;0.95;;
31978;SDS011;18502;43.574;1.276;2023-04-24T14:00:37;4.82;;;1.00;;
31978;SDS011;18502;43.574;1.276;2023-04-24T14:03:02;5.47;;;1.02;;
31978;SDS011;18502;43.574;1.276;2023-04-24T14:05:28;4.45;;;0.80;;
31978;SDS011;18502;43.574;1.276;2023-04-24T14:07:54;4.78;;;1.30;;
31978;SDS011;18502;43.574;1.276;2023-04-24T14:10:20;5.40;;;1.30;;
31978;SDS011;18502;43.574;1.276;2023-04-24T14:12:45;3.00;;;0.90;;
31978;SDS011;18502;43.574;1.276;2023-04-24T14:15:11;3.15;;;0.80;;
31978;SDS011;18502;43.574;1.276;2023-04-24T14:17:38;2.85;;;0.80;;
31978;SDS011;18502;43.574;1.276;2023-04-24T14:20:04;5.55;;;1.30;;
31978;SDS011;18502;43.574;1.276;2023-04-24T14:22:30;5.30;;;0.80;;
31978;SDS011;18502;43.574;1.276;2023-04-24T14:24:56;3.58;;;1.15;;
31978;SDS011;18502;43.574;1.276;2023-04-24T14:27:22;7.60;;;1.35;;
31978;SDS011;18502;43.574;1.276;2023-04-24T14:29:49;5.10;;;1.08;;
31978;SDS011;18502;43.574;1.276;2023-04-24T14:32:15;5.80;;;0.90;;
31978;SDS011;18502;43.574;1.276;2023-04-24T14:34:40;4.47;;;1.35;;
31978;SDS011;18502;43.574;1.276;2023-04-24T14:37:06;4.10;;;0.98;;
31978;SDS011;18502;43.574;1.276;2023-04-24T14:39:32;4.00;;;1.00;;
31978;SDS011;18502;43.574;1.276;2023-04-24T14:41:58;2.83;;;0.85;;
31978;SDS011;18502;43.574;1.276;2023-04-24T14:44:24;8.13;;;1.52;;
31978;SDS011;18502;43.574;1.276;2023-04-24T14:46:49;4.32;;;1.20;;
31978;SDS011;18502;43.574;1.276;2023-04-24T14:49:15;7.50;;;1.60;;
31978;SDS011;18502;43.574;1.276;2023-04-24T14:51:41;8.13;;;1.50;;
31978;SDS011;18502;43.574;1.276;2023-04-24T14:54:07;4.20;;;1.00;;
31978;SDS011;18502;43.574;1.276;2023-04-24T14:56:33;4.57;;;1.33;;
31978;SDS011;18502;43.574;1.276;2023-04-24T14:58:59;4.70;;;1.17;;
31978;SDS011;18502;43.574;1.276;2023-04-24T15:01:24;4.95;;;1.40;;